createdAt,value
2023-05-21T00:07:21.458Z,0
2023-05-21T00:12:40.730Z,0
2023-05-21T00:18:00.373Z,0
2023-05-21T00:23:19.291Z,0
2023-05-21T00:28:38.687Z,0
2023-05-21T00:33:57.647Z,0
2023-05-21T00:39:16.636Z,0
2023-05-21T00:49:54.934Z,0
2023-05-21T00:55:13.897Z,0
2023-05-21T01:05:53.156Z,0
2023-05-21T01:11:12.233Z,0
2023-05-21T01:16:31.690Z,0
2023-05-21T01:21:50.904Z,0
2023-05-21T01:32:29.377Z,0
2023-05-21T01:37:48.446Z,0
2023-05-21T01:48:26.407Z,0
2023-05-21T01:53:45.605Z,0
2023-05-21T01:59:04.619Z,0
2023-05-21T02:04:23.333Z,0
2023-05-21T02:09:42.930Z,0
2023-05-21T02:15:02.540Z,0
2023-05-21T02:20:21.824Z,0
2023-05-21T02:31:00.629Z,0
2023-05-21T02:36:19.621Z,0
2023-05-21T02:41:39.257Z,0
2023-05-21T02:46:58.722Z,0
2023-05-21T02:52:18.155Z,0
2023-05-21T02:57:37.196Z,0
2023-05-21T03:02:56.127Z,2
2023-05-21T03:08:15.185Z,5
2023-05-21T03:13:34.647Z,14
2023-05-21T03:24:12.721Z,55
2023-05-21T03:29:31.900Z,86
2023-05-21T03:34:51.429Z,130
2023-05-21T03:40:11.684Z,197
2023-05-21T03:45:30.535Z,304
2023-05-21T03:50:50.142Z,442
2023-05-21T03:56:08.942Z,604
2023-05-21T04:06:48.086Z,968
2023-05-21T04:12:07.231Z,1210
2023-05-21T04:17:26.976Z,1401
2023-05-21T04:22:46.556Z,1699
2023-05-21T04:28:05.087Z,1943
2023-05-21T04:33:24.478Z,2195
2023-05-21T04:38:43.832Z,2400
2023-05-21T04:44:02.708Z,2795
2023-05-21T04:49:31.530Z,3192
2023-05-21T04:54:40.536Z,3499
2023-05-21T05:05:18.733Z,4378
2023-05-21T05:10:37.714Z,4773
2023-05-21T05:16:23.108Z,5319
2023-05-21T05:21:42.064Z,5815
2023-05-21T05:27:00.911Z,6463
2023-05-21T05:32:20.352Z,6988
2023-05-21T05:37:39.742Z,7353
2023-05-21T05:42:58.112Z,7983
2023-05-21T05:48:17.088Z,8473
2023-05-21T05:53:36.230Z,8886
2023-05-21T05:58:55.681Z,9556
2023-05-21T06:04:14.764Z,10487
2023-05-21T06:09:33.934Z,11863
2023-05-21T06:14:53.072Z,13578
2023-05-21T06:20:12.278Z,16039
2023-05-21T06:30:51.018Z,12705
2023-05-21T06:36:09.882Z,12337
2023-05-21T06:42:44.018Z,12523
2023-05-21T06:46:49.225Z,13427
2023-05-21T06:52:08.046Z,16003
2023-05-21T06:57:25.986Z,19815
2023-05-21T07:02:44.952Z,20532
2023-05-21T07:13:24.026Z,20636
2023-05-21T07:18:42.762Z,21893
2023-05-21T07:24:02.076Z,26252
2023-05-21T07:29:21.207Z,27609
2023-05-21T07:34:40.086Z,24972
2023-05-21T07:39:58.875Z,32902
2023-05-21T07:45:17.799Z,33432
2023-05-21T07:50:36.899Z,30847
2023-05-21T08:01:15.455Z,37671
2023-05-21T08:06:34.705Z,37800
2023-05-21T08:11:53.589Z,36250
2023-05-21T08:17:12.388Z,38400
2023-05-21T08:27:52.406Z,39681
2023-05-21T08:33:09.006Z,39760
2023-05-21T08:38:30.209Z,40427
2023-05-21T08:43:49.352Z,42150
2023-05-21T08:49:07.162Z,41927
2023-05-21T08:54:26.719Z,40050
2023-05-21T08:59:45.549Z,40601
2023-05-21T09:05:05.007Z,39192
2023-05-21T09:10:24.241Z,40185
2023-05-21T09:15:42.923Z,40815
2023-05-21T09:21:01.883Z,38658
2023-05-21T09:26:20.855Z,35837
2023-05-21T09:36:59.455Z,40348
2023-05-21T09:42:18.360Z,42947
2023-05-21T09:47:37.659Z,47735
2023-05-21T09:52:56.760Z,49623
2023-05-21T10:03:34.913Z,47403
2023-05-21T10:08:54.108Z,47775
2023-05-21T10:19:32.552Z,53088
2023-05-21T10:25:01.237Z,53262
2023-05-21T10:30:10.317Z,50899
2023-05-21T10:35:29.840Z,49841
2023-05-21T10:40:49.535Z,46076
2023-05-21T10:46:08.993Z,44055
2023-05-21T10:51:28.148Z,45325
2023-05-21T11:02:06.573Z,48824
2023-05-21T11:07:25.469Z,48493
2023-05-21T11:12:44.545Z,49814
2023-05-21T11:18:03.510Z,50544
2023-05-21T11:23:22.216Z,48775
2023-05-21T11:28:41.460Z,47105
2023-05-21T11:34:00.497Z,42648
2023-05-21T11:39:19.944Z,43732
2023-05-21T11:44:39.551Z,45303
2023-05-21T11:49:59.124Z,46722
2023-05-21T12:00:38.019Z,43885
2023-05-21T12:05:56.734Z,42985
2023-05-21T12:11:15.405Z,38112
2023-05-21T12:16:34.741Z,42549
2023-05-21T12:21:53.423Z,45045
2023-05-21T12:27:12.064Z,44595
2023-05-21T12:32:31.531Z,45867
2023-05-21T12:37:50.865Z,41110
2023-05-21T12:43:09.676Z,37440
2023-05-21T12:48:29.265Z,29992
2023-05-21T12:53:48.329Z,30963
2023-05-21T12:59:07.931Z,31829
2023-05-21T13:04:26.884Z,33819
2023-05-21T13:09:46.433Z,34250
2023-05-21T13:15:15.036Z,31954
2023-05-21T13:20:24.859Z,26879
2023-05-21T13:25:44.276Z,26249
2023-05-21T13:31:03.039Z,24679
2023-05-21T13:36:21.865Z,28001
2023-05-21T13:41:41.141Z,24731
2023-05-21T13:47:00.365Z,17490
2023-05-21T13:52:19.804Z,22633
2023-05-21T13:57:39.123Z,23783
2023-05-21T14:02:58.692Z,16942
2023-05-21T14:08:17.386Z,30345
2023-05-21T14:13:36.533Z,32464
2023-05-21T14:18:55.955Z,31225
2023-05-21T14:24:15.213Z,29186
2023-05-21T14:29:34.697Z,26112
2023-05-21T14:40:13.761Z,22479
2023-05-21T14:45:33.351Z,20775
2023-05-21T14:50:52.195Z,19199
2023-05-21T14:56:11.094Z,16921
2023-05-21T15:01:30.299Z,15005
2023-05-21T15:06:49.736Z,13917
2023-05-21T15:12:09.234Z,13214
2023-05-21T15:22:47.294Z,11843
2023-05-21T15:28:06.375Z,11431
2023-05-21T15:33:26.113Z,11032
2023-05-21T15:38:45.476Z,10613
2023-05-21T15:44:04.694Z,10245
2023-05-21T15:49:23.649Z,9900
2023-05-21T15:54:43.171Z,9562
2023-05-21T16:05:21.531Z,9230
2023-05-21T16:10:40.572Z,8967
2023-05-21T16:16:00.060Z,8775
2023-05-21T16:21:19.376Z,8617
2023-05-21T16:26:38.900Z,8483
2023-05-21T16:31:57.740Z,8195
2023-05-21T16:37:16.781Z,8030
2023-05-21T16:42:36.074Z,7529
2023-05-21T16:47:54.852Z,7499
2023-05-21T16:58:32.366Z,6749
2023-05-21T17:03:51.434Z,6434
2023-05-21T17:09:10.534Z,6202
2023-05-21T17:14:34.077Z,5657
2023-05-21T17:25:07.984Z,4646
2023-05-21T17:30:26.719Z,4360
2023-05-21T17:35:45.818Z,3791
2023-05-21T17:41:05.068Z,3244
2023-05-21T17:46:24.313Z,2944
2023-05-21T17:51:43.967Z,2535
2023-05-21T17:57:02.692Z,2304
2023-05-21T18:02:22.170Z,1975
2023-05-21T18:07:51.112Z,1729
2023-05-21T18:13:01.538Z,1513
2023-05-21T18:24:54.866Z,1132
2023-05-21T18:29:00.834Z,956
2023-05-21T18:34:20.010Z,813
2023-05-21T18:39:39.496Z,650
2023-05-21T18:44:58.983Z,511
2023-05-21T18:50:18.235Z,383
2023-05-21T18:55:37.011Z,275
2023-05-21T19:00:56.394Z,177
2023-05-21T19:06:15.825Z,119
2023-05-21T19:11:34.756Z,78
2023-05-21T19:22:13.225Z,24
2023-05-21T19:27:32.081Z,10
2023-05-21T19:32:49.997Z,4
2023-05-21T19:38:08.735Z,1
2023-05-21T19:43:28.211Z,0
2023-05-21T19:48:47.379Z,0
2023-05-21T19:54:06.284Z,0
2023-05-21T19:59:25.332Z,0
2023-05-21T20:04:45.093Z,0
2023-05-21T20:10:03.832Z,0
2023-05-21T20:16:38.015Z,0
2023-05-21T20:20:44.177Z,0
2023-05-21T20:26:02.776Z,0
2023-05-21T20:31:22.202Z,0
2023-05-21T20:36:41.424Z,0
2023-05-21T20:47:18.890Z,0
2023-05-21T20:52:37.676Z,0
2023-05-21T20:57:57.320Z,0
2023-05-21T21:03:16.216Z,0
2023-05-21T21:08:35.104Z,0
2023-05-21T21:13:54.698Z,0
2023-05-21T21:19:14.008Z,0
2023-05-21T21:24:33.569Z,0
2023-05-21T21:29:52.715Z,0
2023-05-21T21:35:12.301Z,0
2023-05-21T21:45:50.937Z,0
2023-05-21T21:58:08.675Z,0
2023-05-21T22:01:50.053Z,0
2023-05-21T22:07:08.984Z,0
2023-05-21T22:12:27.992Z,0
2023-05-21T22:17:46.728Z,0
2023-05-21T22:23:05.475Z,0
2023-05-21T22:28:24.261Z,0
2023-05-21T22:33:43.653Z,0
2023-05-21T22:42:16.672Z,0
2023-05-21T22:44:20.221Z,0
2023-05-21T22:54:59.270Z,0
2023-05-21T23:00:46.329Z,0
2023-05-21T23:06:05.561Z,0
2023-05-21T23:11:24.443Z,0
2023-05-21T23:16:44.177Z,0
2023-05-21T23:22:03.795Z,0
2023-05-21T23:27:23.096Z,0
2023-05-21T23:32:42.197Z,0
2023-05-21T23:38:01.196Z,0
2023-05-21T23:43:20.645Z,0
2023-05-21T23:53:58.207Z,0
